Time;durP1;ratioP1;P1;durP2;ratioP2;P2;SDS_P1;SDS_P2;PMS_P1;PMS_P2;Temp;Humidity;BMP_temperature;BMP_pressure;BME280_temperature;BME280_humidity;BME280_pressure;Samples;Min_cycle;Max_cycle;Signal;HPM_P1;HPM_P2
2022/03/12 00:01:24;;;;;;;8.23;5.10;;;11.90;99.90;;;;;;5053524;28;20301;-79
2022/03/12 00:03:54;;;;;;;8.50;5.82;;;12.00;99.90;;;;;;5054110;28;20725;-81
2022/03/12 00:06:21;;;;;;;6.82;5.18;;;12.00;99.90;;;;;;5053583;28;20199;-78
2022/03/12 00:08:51;;;;;;;9.15;4.63;;;12.00;99.90;;;;;;5053967;28;20218;-77
2022/03/12 00:11:19;;;;;;;6.97;4.35;;;12.00;99.90;;;;;;5054068;28;20302;-76
2022/03/12 00:13:47;;;;;;;6.80;3.70;;;12.00;99.90;;;;;;5054090;28;20276;-80
2022/03/12 00:16:22;;;;;;;10.55;4.15;;;12.00;99.90;;;;;;5054140;28;20208;-78
2022/03/12 00:18:52;;;;;;;6.32;3.70;;;12.00;99.90;;;;;;5053815;28;20562;-77
2022/03/12 00:21:24;;;;;;;4.78;3.22;;;12.00;99.90;;;;;;5053897;28;20331;-76
2022/03/12 00:23:51;;;;;;;8.50;4.22;;;12.00;99.90;;;;;;5053442;28;20285;-79
2022/03/12 00:26:20;;;;;;;5.03;3.80;;;12.00;99.90;;;;;;5054115;28;20284;-74
2022/03/12 00:28:47;;;;;;;8.60;4.80;;;12.00;99.90;;;;;;5054012;28;20261;-79
2022/03/12 00:31:14;;;;;;;5.32;4.00;;;12.00;99.90;;;;;;5053720;28;20613;-76
2022/03/12 00:33:41;;;;;;;4.88;3.50;;;12.00;99.90;;;;;;5053210;28;20202;-78
2022/03/12 00:36:09;;;;;;;4.43;3.17;;;11.90;99.90;;;;;;5053611;28;20215;-81
2022/03/12 00:38:37;;;;;;;6.47;3.25;;;12.00;99.90;;;;;;5052603;28;20206;-76
2022/03/12 00:41:07;;;;;;;4.97;2.92;;;12.00;99.90;;;;;;5053400;28;20268;-78
2022/03/12 00:43:34;;;;;;;6.07;3.53;;;12.00;99.90;;;;;;5052826;28;20238;-78
2022/03/12 00:46:01;;;;;;;5.95;3.28;;;12.00;99.90;;;;;;5053259;28;20659;-78
2022/03/12 00:48:28;;;;;;;6.25;3.55;;;11.90;99.90;;;;;;5052989;28;20202;-77
2022/03/12 00:50:55;;;;;;;4.72;3.40;;;12.00;99.90;;;;;;5053099;28;20609;-76
2022/03/12 00:53:22;;;;;;;3.72;3.40;;;11.90;99.90;;;;;;5052681;28;20260;-77
2022/03/12 00:55:51;;;;;;;3.75;3.38;;;12.00;99.90;;;;;;5052117;28;20207;-75
2022/03/12 00:58:18;;;;;;;6.22;3.80;;;11.90;99.90;;;;;;5053232;28;20637;-73
2022/03/12 01:00:45;;;;;;;3.92;3.20;;;12.00;99.90;;;;;;5053506;28;20629;-79
2022/03/12 01:03:12;;;;;;;5.97;3.63;;;12.00;99.90;;;;;;5052862;28;20234;-78
2022/03/12 01:05:59;;;;;;;9.35;5.10;;;12.00;99.90;;;;;;5052388;28;21167;-79
2022/03/12 01:08:27;;;;;;;4.78;3.45;;;11.90;99.90;;;;;;5052211;28;20667;-77
2022/03/12 01:10:59;;;;;;;4.28;3.22;;;12.00;99.90;;;;;;5052798;28;20231;-79
2022/03/12 01:13:26;;;;;;;4.43;3.72;;;12.00;99.90;;;;;;5052440;28;20203;-77
2022/03/12 01:15:53;;;;;;;3.97;3.30;;;12.00;99.90;;;;;;5052514;28;20249;-78
2022/03/12 01:18:22;;;;;;;5.00;4.03;;;12.00;99.90;;;;;;5052514;28;20559;-74
2022/03/12 01:20:50;;;;;;;6.32;3.30;;;11.90;99.90;;;;;;5052468;28;20207;-78
2022/03/12 01:23:18;;;;;;;4.35;3.72;;;11.90;99.90;;;;;;5052810;28;20671;-77
2022/03/12 01:25:48;;;;;;;7.70;3.78;;;11.90;99.90;;;;;;5052680;28;20250;-78
2022/03/12 01:28:17;;;;;;;5.70;3.97;;;11.90;99.90;;;;;;5052921;28;20203;-77
2022/03/12 01:30:44;;;;;;;4.70;3.47;;;11.90;99.90;;;;;;5052325;28;20203;-78
2022/03/12 01:33:12;;;;;;;5.97;3.70;;;11.90;99.90;;;;;;5052334;28;20206;-78
2022/03/12 01:35:40;;;;;;;4.50;3.10;;;12.00;99.90;;;;;;5051559;28;20207;-79
2022/03/12 01:38:07;;;;;;;4.28;3.60;;;11.90;99.90;;;;;;5052457;28;20213;-79
2022/03/12 01:40:35;;;;;;;5.10;3.70;;;11.90;99.90;;;;;;5051926;28;20268;-78
2022/03/12 01:43:02;;;;;;;6.63;4.45;;;12.00;99.90;;;;;;5052520;28;20227;-79
2022/03/12 01:45:31;;;;;;;7.13;4.82;;;11.90;99.90;;;;;;5051796;28;20624;-76
2022/03/12 01:48:00;;;;;;;6.32;5.72;;;11.90;99.90;;;;;;5052086;28;20221;-78
2022/03/12 01:50:31;;;;;;;9.98;6.70;;;11.80;99.90;;;;;;5051376;28;20740;-79
2022/03/12 01:53:02;;;;;;;7.63;6.75;;;11.70;99.90;;;;;;5052004;28;20272;-77
2022/03/12 01:55:31;;;;;;;10.63;6.53;;;11.60;99.90;;;;;;5051513;28;20697;-79
2022/03/12 01:58:02;;;;;;;9.05;5.75;;;11.50;99.90;;;;;;5052037;28;20264;-78
2022/03/12 02:00:41;;;;;;;9.82;5.80;;;11.50;99.90;;;;;;5051417;28;20272;-77
2022/03/12 02:03:09;;;;;;;6.95;6.15;;;11.40;99.90;;;;;;5051468;28;20240;-77
2022/03/12 02:05:36;;;;;;;9.20;6.22;;;11.40;99.90;;;;;;5051177;28;20624;-79
2022/03/12 02:08:03;;;;;;;7.03;5.68;;;11.30;99.90;;;;;;5051698;28;20210;-79
2022/03/12 02:10:31;;;;;;;7.93;5.33;;;11.30;99.90;;;;;;5051318;28;20225;-79
2022/03/12 02:12:58;;;;;;;10.57;5.63;;;11.30;99.90;;;;;;5051661;28;20297;-75
2022/03/12 02:15:25;;;;;;;8.00;5.80;;;11.30;99.90;;;;;;5050885;28;20273;-78
2022/03/12 02:17:53;;;;;;;6.47;5.50;;;11.40;99.90;;;;;;5051732;28;20561;-74
2022/03/12 02:20:23;;;;;;;5.05;4.50;;;11.30;99.90;;;;;;5050802;28;20618;-73
2022/03/12 02:22:53;;;;;;;8.82;5.47;;;11.30;99.90;;;;;;5051138;28;20709;-78
2022/03/12 02:25:27;;;;;;;9.95;6.10;;;11.30;99.90;;;;;;5051187;28;20203;-73
2022/03/12 02:27:55;;;;;;;8.05;5.90;;;11.20;99.90;;;;;;5051256;28;20203;-79
2022/03/12 02:30:23;;;;;;;6.80;5.30;;;11.20;99.90;;;;;;5050796;28;20214;-77
2022/03/12 02:33:00;;;;;;;7.18;4.78;;;11.20;99.90;;;;;;5051243;28;20560;-78
2022/03/12 02:35:28;;;;;;;7.68;6.00;;;11.10;99.90;;;;;;5050610;28;20242;-78
2022/03/12 02:37:56;;;;;;;5.82;4.95;;;11.00;99.90;;;;;;5050989;28;20214;-76
2022/03/12 02:40:24;;;;;;;9.88;5.43;;;10.90;99.90;;;;;;5050721;28;20203;-78
2022/03/12 02:42:55;;;;;;;7.45;5.38;;;11.00;99.90;;;;;;5051148;28;20276;-75
2022/03/12 02:45:23;;;;;;;7.00;4.10;;;11.00;99.90;;;;;;5050503;28;20198;-77
2022/03/12 02:47:50;;;;;;;7.90;4.00;;;10.90;99.90;;;;;;5050830;28;20233;-79
2022/03/12 02:50:18;;;;;;;7.95;4.65;;;10.90;99.90;;;;;;5051084;28;20675;-79
2022/03/12 02:52:46;;;;;;;4.45;3.65;;;10.80;99.90;;;;;;5051076;28;20746;-79
2022/03/12 02:55:16;;;;;;;4.40;3.50;;;10.80;99.90;;;;;;5050868;28;20203;-79
2022/03/12 02:57:47;;;;;;;7.47;4.63;;;10.70;99.90;;;;;;5050973;28;20203;-80
2022/03/12 03:00:16;;;;;;;3.60;3.10;;;10.70;99.90;;;;;;5051124;28;20294;-77
2022/03/12 03:02:53;;;;;;;6.50;4.33;;;10.70;99.90;;;;;;5050047;28;20226;-77
2022/03/12 03:05:35;;;;;;;3.27;2.97;;;10.70;99.90;;;;;;5050465;28;20700;-74
2022/03/12 03:08:04;;;;;;;7.17;3.80;;;10.60;99.90;;;;;;5050604;28;20211;-81
2022/03/12 03:10:34;;;;;;;6.27;3.60;;;10.60;99.90;;;;;;5050478;28;20203;-79
2022/03/12 03:13:33;;;;;;;3.50;3.10;;;10.50;99.90;;;;;;5050958;28;20256;-78
2022/03/12 03:16:03;;;;;;;3.80;3.40;;;10.50;99.90;;;;;;5050615;28;20662;-79
2022/03/12 03:18:31;;;;;;;4.00;3.60;;;10.50;99.90;;;;;;5050117;28;20602;-80
2022/03/12 03:20:59;;;;;;;4.50;3.63;;;10.60;99.90;;;;;;5054923;28;20206;-80
2022/03/12 03:23:28;;;;;;;8.77;3.90;;;10.60;99.90;;;;;;5054506;28;20234;-79
2022/03/12 03:25:55;;;;;;;4.33;3.53;;;10.50;99.90;;;;;;5054760;28;20244;-79
2022/03/12 03:28:23;;;;;;;4.73;3.17;;;10.60;99.90;;;;;;5054281;28;20559;-79
2022/03/12 03:30:50;;;;;;;4.20;3.30;;;10.60;99.90;;;;;;5054619;28;20252;-81
2022/03/12 03:33:20;;;;;;;4.37;3.13;;;10.60;99.90;;;;;;5054752;28;20219;-82
2022/03/12 03:35:47;;;;;;;4.40;3.42;;;10.50;99.90;;;;;;5060039;28;20210;-81
2022/03/12 03:38:15;;;;;;;3.67;3.10;;;10.50;99.90;;;;;;5055616;28;20329;-79
2022/03/12 03:40:43;;;;;;;4.07;3.67;;;10.40;1.00;;;;;;5054045;28;20622;-77
2022/03/12 03:43:13;;;;;;;4.43;3.70;;;10.40;1.00;;;;;;5054693;28;20227;-80
2022/03/12 03:45:42;;;;;;;4.40;4.00;;;10.30;1.00;;;;;;5054059;28;20210;-78
2022/03/12 03:48:13;;;;;;;4.47;3.10;;;10.50;1.00;;;;;;5054364;28;20203;-80
2022/03/12 03:50:40;;;;;;;4.37;3.20;;;10.30;1.00;;;;;;5053677;28;20321;-80
2022/03/12 03:53:07;;;;;;;4.83;3.57;;;10.10;1.00;;;;;;5054189;28;20206;-80
2022/03/12 03:55:35;;;;;;;3.80;3.37;;;10.10;1.00;;;;;;5053846;28;20203;-81
2022/03/12 03:58:03;;;;;;;3.50;3.13;;;10.00;1.00;;;;;;5054155;28;20253;-77
2022/03/12 04:00:32;;;;;;;3.63;3.30;;;10.00;1.00;;;;;;5053599;28;20579;-75
2022/03/12 04:03:02;;;;;;;4.17;2.93;;;9.90;1.00;;;;;;5053685;28;20611;-80
2022/03/12 04:05:30;;;;;;;3.87;3.47;;;9.80;1.00;;;;;;5053690;28;20575;-81
2022/03/12 04:07:57;;;;;;;4.50;3.30;;;9.80;1.00;;;;;;5053915;28;20244;-81
2022/03/12 04:10:24;;;;;;;3.43;2.87;;;9.80;1.00;;;;;;5053789;28;20207;-79
2022/03/12 04:12:51;;;;;;;4.47;3.80;;;9.70;1.00;;;;;;5053976;28;20214;-79
2022/03/12 04:15:18;;;;;;;5.37;3.40;;;9.70;1.00;;;;;;5053705;28;20234;-76
2022/03/12 04:17:46;;;;;;;4.10;3.40;;;9.70;1.00;;;;;;5054129;28;20272;-80
2022/03/12 04:20:18;;;;;;;3.30;3.00;;;9.80;22.30;;;;;;5053874;28;20202;-81
2022/03/12 04:22:45;;;;;;;6.17;3.17;;;9.80;1.00;;;;;;5053491;28;20305;-79
2022/03/12 04:25:13;;;;;;;3.00;2.70;;;9.70;1.00;;;;;;5054001;28;20589;-76
2022/03/12 04:27:42;;;;;;;4.60;3.20;;;9.70;1.00;;;;;;5052997;28;20675;-74
2022/03/12 04:30:11;;;;;;;3.43;3.13;;;9.70;47.40;;;;;;5053261;28;20638;-77
2022/03/12 04:32:39;;;;;;;3.77;2.77;;;9.70;61.40;;;;;;5053196;28;20215;-79
2022/03/12 04:35:07;;;;;;;3.20;2.90;;;9.70;99.90;;;;;;5053414;28;20663;-79
2022/03/12 04:37:36;;;;;;;4.53;3.10;;;9.70;99.90;;;;;;5052697;28;20260;-78
2022/03/12 04:40:08;;;;;;;3.63;3.13;;;9.70;99.90;;;;;;5053439;28;20211;-78
2022/03/12 04:42:38;;;;;;;3.17;2.37;;;9.60;99.90;;;;;;5052784;28;20210;-79
2022/03/12 04:45:07;;;;;;;3.13;2.40;;;9.60;99.90;;;;;;5052990;28;20230;-82
2022/03/12 04:47:34;;;;;;;2.80;2.53;;;9.60;99.90;;;;;;5052834;28;20209;-81
2022/03/12 04:50:02;;;;;;;2.50;2.00;;;9.60;99.90;;;;;;5053332;28;20202;-84
2022/03/12 04:52:30;;;;;;;2.83;2.00;;;9.70;99.90;;;;;;5053044;28;20297;-82
2022/03/12 04:54:59;;;;;;;1.93;1.73;;;9.60;99.90;;;;;;5053630;28;20198;-83
2022/03/12 04:57:26;;;;;;;2.20;1.60;;;9.60;99.90;;;;;;5053159;28;20568;-81
2022/03/12 04:59:53;;;;;;;2.63;1.80;;;9.60;99.90;;;;;;5054525;28;20225;-83
2022/03/12 05:02:20;;;;;;;1.67;1.53;;;9.60;99.90;;;;;;5055096;28;20211;-74
2022/03/12 05:04:47;;;;;;;1.80;1.50;;;9.70;99.90;;;;;;5053140;28;20288;-80
2022/03/12 05:07:14;;;;;;;2.87;1.40;;;9.80;1.00;;;;;;5053260;28;20207;-79
2022/03/12 05:09:41;;;;;;;1.43;1.10;;;9.80;99.90;;;;;;5052520;28;20205;-76
2022/03/12 05:12:10;;;;;;;2.73;1.40;;;9.70;99.90;;;;;;5052811;28;20210;-80
2022/03/12 05:14:38;;;;;;;1.50;1.23;;;9.80;99.90;;;;;;5051966;28;20215;-80
2022/03/12 05:17:08;;;;;;;1.20;1.03;;;9.90;99.90;;;;;;5052693;28;20199;-81
2022/03/12 05:19:37;;;;;;;1.50;1.10;;;9.80;99.90;;;;;;5052362;28;20293;-81
2022/03/12 05:22:05;;;;;;;2.00;1.50;;;9.80;99.90;;;;;;5052744;28;20203;-81
2022/03/12 05:24:32;;;;;;;1.83;0.80;;;9.90;99.90;;;;;;5052376;28;20227;-83
2022/03/12 05:26:59;;;;;;;1.80;1.23;;;9.80;99.90;;;;;;5052438;28;20203;-82
2022/03/12 05:29:30;;;;;;;2.20;1.10;;;9.70;99.90;;;;;;5051853;28;20294;-84
2022/03/12 05:31:57;;;;;;;2.63;1.20;;;9.60;99.90;;;;;;5052648;28;20633;-83
2022/03/12 05:34:24;;;;;;;3.67;1.57;;;9.60;1.00;;;;;;5052483;28;20206;-80
2022/03/12 05:36:52;;;;;;;1.97;1.00;;;9.50;1.00;;;;;;5052690;28;20718;-83
2022/03/12 05:39:21;;;;;;;1.00;0.93;;;9.50;1.00;;;;;;5052464;28;20255;-82
2022/03/12 05:41:49;;;;;;;0.40;0.40;;;9.40;1.00;;;;;;5052343;28;20722;-77
2022/03/12 05:44:16;;;;;;;1.37;0.93;;;9.40;1.00;;;;;;5052807;28;20240;-83
2022/03/12 05:46:45;;;;;;;1.27;0.70;;;9.30;99.90;;;;;;5052582;28;20238;-87
2022/03/12 05:49:12;;;;;;;0.97;0.50;;;9.30;99.90;;;;;;5052566;28;20199;-84
2022/03/12 05:51:42;;;;;;;0.80;0.40;;;9.20;1.00;;;;;;5051923;28;20746;-83
2022/03/12 05:54:10;;;;;;;0.73;0.73;;;9.20;1.00;;;;;;5052045;28;20579;-80
2022/03/12 05:56:40;;;;;;;1.00;0.60;;;9.30;1.00;;;;;;5051797;28;20207;-80
2022/03/12 05:59:08;;;;;;;1.33;0.90;;;9.40;99.90;;;;;;5051885;28;20202;-82
2022/03/12 06:01:35;;;;;;;0.97;0.60;;;9.40;99.90;;;;;;5051653;28;20270;-81
2022/03/12 06:04:05;;;;;;;1.97;0.80;;;9.40;99.90;;;;;;5051460;28;20790;-81
2022/03/12 06:06:32;;;;;;;0.67;0.30;;;9.30;1.00;;;;;;5051535;28;20210;-79
2022/03/12 06:08:59;;;;;;;0.47;0.40;;;9.20;1.00;;;;;;5052133;28;20577;-79
2022/03/12 06:11:27;;;;;;;0.50;0.30;;;9.20;1.00;;;;;;5051248;28;20674;-78
2022/03/12 06:13:59;;;;;;;0.50;0.50;;;9.20;1.00;;;;;;5051413;28;20206;-74
2022/03/12 06:16:26;;;;;;;1.30;0.53;;;9.20;1.00;;;;;;5051215;28;20568;-76
2022/03/12 06:18:54;;;;;;;0.50;0.40;;;9.20;99.90;;;;;;5051596;28;20288;-81
2022/03/12 06:21:22;;;;;;;0.93;0.83;;;9.10;99.90;;;;;;5050785;28;20206;-80
2022/03/12 06:23:49;;;;;;;2.30;0.60;;;9.10;1.00;;;;;;5051534;28;20231;-78
2022/03/12 06:26:18;;;;;;;0.97;0.50;;;9.10;1.00;;;;;;5051583;28;20213;-79
2022/03/12 06:28:45;;;;;;;0.70;0.63;;;9.10;1.00;;;;;;5051804;28;20211;-77
2022/03/12 06:31:14;;;;;;;1.37;0.47;;;9.10;1.00;;;;;;5051309;28;20203;-78
2022/03/12 06:33:43;;;;;;;1.30;0.57;;;9.10;99.90;;;;;;5050867;28;20211;-79
2022/03/12 06:36:12;;;;;;;1.77;0.50;;;9.10;1.00;;;;;;5051068;28;20301;-77
2022/03/12 06:38:40;;;;;;;0.90;0.60;;;9.10;99.90;;;;;;5050802;28;20283;-78
2022/03/12 06:41:07;;;;;;;1.53;1.00;;;9.10;1.00;;;;;;5050795;28;20364;-77
2022/03/12 06:43:36;;;;;;;0.60;0.50;;;9.20;1.00;;;;;;5050563;28;20203;-79
2022/03/12 06:46:03;;;;;;;0.50;0.43;;;9.10;1.00;;;;;;5051020;28;20206;-80
2022/03/12 06:48:31;;;;;;;0.40;0.40;;;9.10;1.00;;;;;;5050865;28;20199;-78
2022/03/12 06:50:58;;;;;;;2.10;0.50;;;9.00;99.90;;;;;;5051194;28;20203;-79
2022/03/12 06:53:25;;;;;;;1.00;0.53;;;9.00;1.00;;;;;;5049850;28;20260;-78
2022/03/12 06:55:54;;;;;;;1.07;0.97;;;8.90;1.00;;;;;;5050754;28;20203;-80
2022/03/12 06:58:22;;;;;;;1.27;0.67;;;8.90;1.00;;;;;;5050588;28;20203;-80
2022/03/12 07:00:49;;;;;;;6.17;4.20;;;8.90;1.00;;;;;;5050797;28;20203;-76
2022/03/12 07:03:16;;;;;;;1.73;0.60;;;9.00;99.90;;;;;;5051449;28;20206;-80
2022/03/12 07:05:43;;;;;;;1.13;0.40;;;8.80;90.30;;;;;;5050635;28;20234;-78
2022/03/12 07:08:10;;;;;;;1.40;0.57;;;8.80;99.90;;;;;;5050936;28;20210;-77
2022/03/12 07:10:37;;;;;;;1.07;0.70;;;8.80;99.90;;;;;;5050125;28;20207;-82
2022/03/12 07:13:05;;;;;;;2.87;0.87;;;8.80;47.00;;;;;;5050954;28;20249;-82
2022/03/12 07:15:32;;;;;;;5.03;0.90;;;8.80;1.00;;;;;;5050447;28;20265;-78
2022/03/12 07:17:59;;;;;;;3.87;1.57;;;8.80;1.00;;;;;;5050611;28;20207;-78
2022/03/12 07:20:26;;;;;;;2.50;0.70;;;8.90;1.00;;;;;;5050646;28;20253;-81
2022/03/12 07:22:53;;;;;;;1.77;0.80;;;8.90;1.00;;;;;;5050796;28;20225;-83
2022/03/12 07:25:20;;;;;;;1.03;0.60;;;8.90;1.00;;;;;;5050260;28;20226;-78
2022/03/12 07:27:47;;;;;;;1.63;0.60;;;8.90;1.00;;;;;;5050927;28;20211;-80
2022/03/12 07:30:16;;;;;;;2.07;0.70;;;8.90;1.00;;;;;;5050999;28;20199;-76
2022/03/12 07:32:45;;;;;;;1.53;0.70;;;8.90;1.00;;;;;;5050827;28;20674;-79
2022/03/12 07:35:13;;;;;;;3.10;0.87;;;8.90;1.00;;;;;;5050769;28;20248;-81
2022/03/12 07:37:41;;;;;;;2.33;0.73;;;9.00;1.00;;;;;;5050263;28;20268;-83
2022/03/12 07:40:10;;;;;;;1.50;0.60;;;9.00;1.00;;;;;;5050340;28;20641;-83
2022/03/12 07:42:37;;;;;;;0.93;0.87;;;9.10;1.00;;;;;;5050176;28;20626;-82
2022/03/12 07:45:04;;;;;;;4.63;1.00;;;9.10;1.00;;;;;;5050781;28;20234;-80
2022/03/12 07:47:33;;;;;;;1.77;0.80;;;9.10;1.00;;;;;;5050331;28;20206;-80
2022/03/12 07:50:00;;;;;;;1.37;0.77;;;9.10;1.00;;;;;;5050782;28;20670;-81
2022/03/12 07:52:28;;;;;;;1.83;1.00;;;9.10;1.00;;;;;;5050309;28;20253;-83
2022/03/12 07:54:55;;;;;;;2.90;1.10;;;9.20;1.00;;;;;;5050637;28;20207;-83
2022/03/12 07:57:26;;;;;;;2.53;0.80;;;9.20;1.00;;;;;;5050731;28;20626;-81
2022/03/12 07:59:53;;;;;;;2.70;0.87;;;9.20;1.00;;;;;;5050575;28;20209;-75
2022/03/12 08:02:21;;;;;;;3.30;0.87;;;9.20;1.00;;;;;;5050323;28;20203;-80
2022/03/12 08:04:49;;;;;;;1.43;0.93;;;9.20;1.00;;;;;;5051373;28;20230;-80
2022/03/12 08:07:16;;;;;;;2.60;1.77;;;9.20;1.00;;;;;;5054382;28;20257;-81
2022/03/12 08:09:43;;;;;;;1.80;1.23;;;9.20;1.00;;;;;;5054132;28;20677;-81
2022/03/12 08:12:16;;;;;;;7.50;2.60;;;9.30;1.00;;;;;;5054505;28;20280;-81
2022/03/12 08:14:45;;;;;;;2.03;1.70;;;9.30;1.00;;;;;;5054307;28;20227;-84
2022/03/12 08:17:12;;;;;;;1.87;0.80;;;9.30;1.00;;;;;;5054337;28;20253;-81
2022/03/12 08:19:39;;;;;;;1.07;0.90;;;9.30;1.00;;;;;;5054065;28;20211;-79
2022/03/12 08:22:07;;;;;;;1.60;0.80;;;9.30;1.00;;;;;;5054596;28;20207;-84
2022/03/12 08:24:34;;;;;;;3.80;0.90;;;9.30;1.00;;;;;;5054038;28;20268;-85
2022/03/12 08:27:01;;;;;;;2.27;1.50;;;9.30;1.00;;;;;;5054387;28;20245;-79
2022/03/12 08:29:28;;;;;;;1.57;0.70;;;9.30;1.00;;;;;;5053800;28;20264;-84
2022/03/12 08:31:55;;;;;;;1.13;0.90;;;9.30;1.00;;;;;;5054255;28;20210;-80
2022/03/12 08:34:22;;;;;;;2.80;1.00;;;9.40;1.00;;;;;;5053535;28;20628;-82
2022/03/12 08:36:49;;;;;;;3.07;0.87;;;9.40;1.00;;;;;;5053702;28;20614;-83
2022/03/12 08:39:18;;;;;;;2.93;0.90;;;9.40;1.00;;;;;;5054588;28;20256;-82
2022/03/12 08:41:46;;;;;;;1.87;1.73;;;9.40;1.00;;;;;;5054398;28;20730;-87
2022/03/12 08:44:13;;;;;;;2.13;1.07;;;9.50;1.00;;;;;;5054131;28;20211;-83
2022/03/12 08:46:42;;;;;;;1.60;0.90;;;9.50;1.00;;;;;;5054577;28;20734;-85
2022/03/12 08:49:09;;;;;;;3.37;1.00;;;9.50;1.00;;;;;;5054660;28;20206;-83
2022/03/12 08:51:38;;;;;;;2.70;1.10;;;9.50;1.00;;;;;;5053382;28;20199;-82
2022/03/12 08:54:06;;;;;;;3.17;1.10;;;9.60;1.00;;;;;;5053955;28;20666;-87
2022/03/12 08:56:34;;;;;;;1.53;0.70;;;9.60;1.00;;;;;;5053732;28;20209;-82
2022/03/12 08:59:02;;;;;;;3.03;0.93;;;9.70;1.00;;;;;;5053999;28;20207;-87
2022/03/12 09:01:29;;;;;;;1.73;0.90;;;9.70;1.00;;;;;;5053228;28;20265;-88
2022/03/12 09:03:57;;;;;;;4.77;2.10;;;9.70;1.00;;;;;;5053960;28;20210;-88
2022/03/12 09:06:27;;;;;;;3.00;1.10;;;9.80;1.00;;;;;;5053033;28;20238;-86
2022/03/12 09:08:55;;;;;;;5.50;1.23;;;9.80;99.90;;;;;;5053447;28;20203;-84
2022/03/12 09:11:23;;;;;;;1.90;1.10;;;9.90;99.90;;;;;;5053634;28;20210;-81
2022/03/12 09:13:51;;;;;;;1.17;0.80;;;9.90;99.90;;;;;;5053708;28;20290;-87
2022/03/12 09:16:18;;;;;;;1.27;0.80;;;9.90;99.90;;;;;;5053307;28;20202;-76
2022/03/12 09:18:46;;;;;;;1.20;1.00;;;10.10;99.90;;;;;;5053949;28;20211;-80
2022/03/12 09:21:13;;;;;;;1.90;0.93;;;10.20;99.90;;;;;;5054181;28;20210;-80
2022/03/12 09:23:40;;;;;;;2.60;0.80;;;10.20;99.90;;;;;;5053759;28;20211;-87
2022/03/12 09:26:07;;;;;;;1.13;0.67;;;10.20;99.90;;;;;;5053788;28;20238;-86
2022/03/12 09:28:34;;;;;;;2.47;0.97;;;10.10;99.90;;;;;;5053021;28;20199;-88
2022/03/12 09:31:04;;;;;;;1.53;0.87;;;10.10;99.90;;;;;;5053768;28;20210;-89
2022/03/12 09:33:31;;;;;;;2.87;0.97;;;10.20;99.90;;;;;;5053055;28;20697;-86
2022/03/12 09:35:58;;;;;;;1.37;0.70;;;10.20;99.90;;;;;;5052825;28;20246;-84
2022/03/12 09:38:25;;;;;;;1.37;0.73;;;10.30;99.90;;;;;;5052874;28;20575;-88
2022/03/12 09:40:53;;;;;;;1.63;0.97;;;10.40;99.90;;;;;;5053358;28;20203;-87
2022/03/12 09:43:20;;;;;;;2.33;0.90;;;10.40;99.90;;;;;;5052517;28;20252;-75
2022/03/12 09:45:47;;;;;;;0.80;0.70;;;10.50;99.90;;;;;;5052839;28;20231;-81
2022/03/12 09:48:16;;;;;;;1.60;0.97;;;10.50;99.90;;;;;;5052844;28;20203;-76
2022/03/12 09:50:43;;;;;;;1.67;0.87;;;10.40;99.90;;;;;;5051959;28;20203;-76
2022/03/12 09:53:10;;;;;;;2.27;0.83;;;10.30;99.90;;;;;;5052314;28;20261;-82
2022/03/12 09:55:38;;;;;;;2.30;0.60;;;10.40;99.90;;;;;;5051942;28;20203;-78
2022/03/12 09:58:06;;;;;;;3.13;1.23;;;10.50;99.90;;;;;;5052913;28;20207;-75
2022/03/12 10:00:33;;;;;;;1.43;0.70;;;10.50;99.90;;;;;;5052038;28;20689;-75
2022/03/12 10:03:00;;;;;;;0.77;0.50;;;10.50;99.90;;;;;;5052325;28;20239;-78
2022/03/12 10:05:29;;;;;;;4.77;0.90;;;10.40;99.90;;;;;;5053318;28;20253;-76
2022/03/12 10:07:56;;;;;;;1.13;1.03;;;10.40;99.90;;;;;;5052635;28;20260;-82
2022/03/12 10:10:24;;;;;;;1.07;0.60;;;10.40;99.90;;;;;;5052204;28;20207;-75
2022/03/12 10:12:52;;;;;;;2.97;0.70;;;10.40;99.90;;;;;;5052400;28;20203;-82
2022/03/12 10:15:20;;;;;;;1.90;0.60;;;10.40;99.90;;;;;;5052628;28;20313;-80
2022/03/12 10:17:49;;;;;;;2.93;1.00;;;10.40;99.90;;;;;;5052199;28;20199;-81
2022/03/12 10:20:16;;;;;;;1.87;0.50;;;10.50;99.90;;;;;;5052313;28;20203;-76
2022/03/12 10:22:46;;;;;;;3.13;1.00;;;10.60;99.90;;;;;;5052109;28;20199;-80
2022/03/12 10:25:14;;;;;;;1.53;0.77;;;10.50;99.90;;;;;;5052268;28;20230;-86
2022/03/12 10:27:41;;;;;;;2.03;1.00;;;10.70;99.90;;;;;;5051972;28;20625;-79
2022/03/12 10:30:10;;;;;;;3.27;2.07;;;10.80;99.90;;;;;;5052742;28;20261;-82
2022/03/12 10:32:44;;;;;;;1.93;1.20;;;10.70;99.90;;;;;;5051654;28;20638;-84
2022/03/12 10:35:12;;;;;;;1.90;1.10;;;10.60;99.90;;;;;;5052261;28;20562;-79
2022/03/12 10:37:40;;;;;;;2.80;0.97;;;10.60;99.90;;;;;;5051356;28;20219;-82
2022/03/12 10:40:11;;;;;;;2.90;1.10;;;10.60;99.90;;;;;;5051989;28;20230;-83
2022/03/12 10:42:45;;;;;;;3.50;1.27;;;10.70;99.90;;;;;;5051473;28;20260;-80
2022/03/12 10:45:14;;;;;;;0.97;0.60;;;10.80;99.90;;;;;;5051699;28;20244;-83
2022/03/12 10:47:44;;;;;;;2.67;1.30;;;10.80;99.90;;;;;;5051326;28;20211;-84
2022/03/12 10:50:15;;;;;;;1.63;1.23;;;10.80;99.90;;;;;;5051850;28;20666;-87
2022/03/12 10:52:49;;;;;;;2.73;1.90;;;10.90;99.90;;;;;;5051470;28;20294;-83
2022/03/12 10:55:23;;;;;;;1.00;0.90;;;10.80;99.90;;;;;;5051859;28;20210;-86
2022/03/12 10:57:58;;;;;;;1.50;0.73;;;10.80;99.90;;;;;;5051544;28;20203;-80
2022/03/12 11:00:27;;;;;;;4.80;1.27;;;10.80;99.90;;;;;;5051508;28;20207;-84
2022/03/12 11:02:55;;;;;;;0.63;0.50;;;10.90;99.90;;;;;;5051548;28;20280;-83
2022/03/12 11:05:27;;;;;;;2.17;0.95;;;11.00;99.90;;;;;;5050956;28;20292;-81
2022/03/12 11:08:17;;;;;;;3.13;0.90;;;11.00;99.90;;;;;;5051480;28;20214;-79
2022/03/12 11:10:50;;;;;;;2.13;1.30;;;11.00;99.90;;;;;;5051626;28;20573;-80
2022/03/12 11:13:34;;;;;;;1.40;1.17;;;11.00;99.90;;;;;;5051507;28;20210;-84
2022/03/12 11:16:16;;;;;;;4.47;1.70;;;11.10;99.90;;;;;;5051021;28;20604;-80
2022/03/12 11:18:59;;;;;;;3.80;2.55;;;11.20;99.90;;;;;;5051074;28;20199;-76
2022/03/12 11:21:33;;;;;;;7.70;3.30;;;11.10;99.90;;;;;;5050330;28;20202;-83
2022/03/12 11:24:00;;;;;;;8.43;6.90;;;10.90;99.90;;;;;;5051262;28;20293;-82
2022/03/12 11:26:29;;;;;;;6.80;5.07;;;10.90;99.90;;;;;;5051112;28;20249;-81
2022/03/12 11:28:58;;;;;;;2.50;1.93;;;11.00;99.90;;;;;;5051328;28;20229;-81
2022/03/12 11:31:42;;;;;;;3.80;1.97;;;11.00;99.90;;;;;;5050885;28;20225;-85
2022/03/12 11:34:22;;;;;;;1.80;0.90;;;11.10;99.90;;;;;;5051356;28;20213;-89
2022/03/12 11:37:01;;;;;;;2.28;1.02;;;11.00;99.90;;;;;;5050999;28;20211;-81
2022/03/12 11:39:30;;;;;;;2.43;1.37;;;11.10;99.90;;;;;;5050847;28;20213;-83
2022/03/12 11:42:11;;;;;;;4.67;1.80;;;11.10;99.90;;;;;;5054618;28;20206;-82
2022/03/12 11:44:40;;;;;;;4.57;1.93;;;11.10;99.90;;;;;;5054241;28;20209;-84
2022/03/12 11:47:08;;;;;;;3.20;1.23;;;11.00;99.90;;;;;;5055090;28;20237;-84
2022/03/12 11:49:35;;;;;;;5.40;1.50;;;11.10;99.90;;;;;;5054650;28;20199;-85
2022/03/12 11:52:03;;;;;;;3.40;1.93;;;11.20;99.90;;;;;;5055165;28;20207;-81
2022/03/12 11:54:31;;;;;;;2.90;1.93;;;11.40;99.90;;;;;;5054522;28;20548;-79
2022/03/12 11:56:59;;;;;;;6.93;2.38;;;11.60;99.90;;;;;;5055164;28;20232;-84
2022/03/12 11:59:27;;;;;;;3.13;1.20;;;11.40;99.90;;;;;;5054307;28;20215;-83
2022/03/12 12:02:02;;;;;;;3.22;1.10;;;11.30;99.90;;;;;;5054499;28;20257;-84
2022/03/12 12:04:32;;;;;;;4.53;1.92;;;11.40;99.90;;;;;;5054229;28;20206;-86
2022/03/12 12:07:01;;;;;;;4.40;2.45;;;11.50;99.90;;;;;;5054770;28;20234;-85
2022/03/12 12:09:29;;;;;;;4.13;3.72;;;11.50;99.90;;;;;;5054459;28;20205;-80
2022/03/12 12:11:56;;;;;;;1.30;1.17;;;11.40;99.90;;;;;;5054693;28;20226;-79
2022/03/12 12:14:24;;;;;;;2.43;0.97;;;11.20;99.90;;;;;;5054092;28;20237;-84
2022/03/12 12:16:57;;;;;;;3.65;1.13;;;11.10;99.90;;;;;;5054304;28;20207;-83
2022/03/12 12:19:25;;;;;;;5.10;1.73;;;11.40;99.90;;;;;;5054203;28;20220;-82
2022/03/12 12:21:52;;;;;;;2.40;1.20;;;11.60;99.90;;;;;;5054817;28;20312;-81
2022/03/12 12:24:31;;;;;;;2.85;1.77;;;11.70;99.90;;;;;;5054298;28;20734;-81
2022/03/12 12:27:00;;;;;;;1.25;0.70;;;11.70;99.90;;;;;;5054358;28;20292;-87
2022/03/12 12:29:55;;;;;;;3.60;1.15;;;11.70;99.90;;;;;;5053663;28;20203;-82
2022/03/12 12:32:25;;;;;;;5.75;1.48;;;11.80;99.90;;;;;;5041025;28;20209;-80
2022/03/12 12:35:02;;;;;;;4.78;1.10;;;11.90;99.90;;;;;;5053765;28;20607;-78
2022/03/12 12:37:46;;;;;;;6.05;1.20;;;12.00;99.90;;;;;;5053275;28;20304;-81
2022/03/12 12:40:26;;;;;;;1.65;0.80;;;12.10;99.90;;;;;;5054000;28;20211;-80
2022/03/12 12:42:56;;;;;;;3.47;1.25;;;12.30;99.90;;;;;;5053581;28;20264;-80
2022/03/12 12:45:26;;;;;;;2.03;0.90;;;12.50;99.90;;;;;;5053375;28;20219;-75
2022/03/12 12:48:14;;;;;;;2.45;1.15;;;12.60;99.90;;;;;;5053497;28;20214;-82
2022/03/12 12:50:42;;;;;;;2.22;0.88;;;12.60;99.90;;;;;;5052834;28;20674;-82
2022/03/12 12:53:13;;;;;;;4.03;1.00;;;12.60;99.90;;;;;;5052529;28;20264;-73
2022/03/12 12:55:40;;;;;;;0.70;0.65;;;12.70;99.90;;;;;;5053331;28;20260;-78
2022/03/12 12:58:08;;;;;;;2.47;1.00;;;12.70;99.90;;;;;;5053201;28;20260;-81
2022/03/12 13:00:40;;;;;;;1.33;0.90;;;12.90;99.90;;;;;;5053028;28;20202;-80
2022/03/12 13:03:32;;;;;;;4.07;1.20;;;13.00;99.90;;;;;;5053105;28;20203;-78